Williston, North Dakota
Current Conditions -  °F | °C
As of 10:52 AM on Thursday 23 Oct 2014 (Local Time) from KISN Reporting Station
Clear Clear  
Wind Chill: 41°   Ceiling: Unl
Heat Index: 46°   Visibility: 10mi
Dew Point: 32°   Wind: 9mph
Humidity: 58%   Direction: 180°S
Pressure: 29.84"   Gusts: NA
Location:  48.15°N, 103.62°W
Report Text: KISN 231552Z AUTO 18008KT 10SM CLR 08/00 A2984 RMK AO2 SLP118 T00780000
Loading
Personal Weather Stations






























Interactive Weather Map New forecast layout! Learn more

10-Day Weather Forecast

Advertisements
Track Severe Weather on mobile